Cooke City, Montana
Current Conditions -  °F | °C
As of 1:53 AM on Wednesday 22 Oct 2014 (Local Time) from KLVM Reporting Station
Overcast Overcast  
Wind Chill: 38°   Ceiling: 7000
Heat Index: 45°   Visibility: 10mi
Dew Point: 33°   Wind: 16mph
Humidity: 63%   Direction: 250°WSW
Pressure: 30.01"   Gusts: NA
Location:  45.02°N, 109.94°W
Report Text: KLVM 220753Z AUTO 25014KT 10SM OVC070 07/01 A3001 RMK AO2 SLP140 T00720006
Loading
Personal Weather Stations






























Interactive Weather Map
Tropical Storm Tracking
New forecast layout! Learn more

10-Day Weather Forecast

Advertisements
Track Severe Weather on mobile